sensor_id;sensor_type;location;lat;lon;timestamp;temperature;humidity
35523;DHT22;61478;50.820;4.330;2023-11-19T00:00:33;13.50;99.90
35523;DHT22;61478;50.820;4.330;2023-11-19T00:02:59;13.50;99.90
35523;DHT22;61478;50.820;4.330;2023-11-19T00:05:24;13.50;99.90
35523;DHT22;61478;50.820;4.330;2023-11-19T00:07:50;13.50;99.90
35523;DHT22;61478;50.820;4.330;2023-11-19T00:10:16;13.50;99.90
35523;DHT22;61478;50.820;4.330;2023-11-19T00:12:45;13.50;99.90
35523;DHT22;61478;50.820;4.330;2023-11-19T00:15:10;13.50;99.90
35523;DHT22;61478;50.820;4.330;2023-11-19T00:17:42;13.50;99.90
35523;DHT22;61478;50.820;4.330;2023-11-19T00:20:19;13.50;99.90
35523;DHT22;61478;50.820;4.330;2023-11-19T00:22:45;13.50;99.90
35523;DHT22;61478;50.820;4.330;2023-11-19T00:25:13;13.50;99.90
35523;DHT22;61478;50.820;4.330;2023-11-19T00:27:40;13.50;99.90
35523;DHT22;61478;50.820;4.330;2023-11-19T00:30:06;13.50;99.90
35523;DHT22;61478;50.820;4.330;2023-11-19T00:32:34;13.50;99.90
35523;DHT22;61478;50.820;4.330;2023-11-19T00:35:01;13.50;99.90
35523;DHT22;61478;50.820;4.330;2023-11-19T00:37:28;13.50;99.90
35523;DHT22;61478;50.820;4.330;2023-11-19T00:39:53;13.50;99.90
35523;DHT22;61478;50.820;4.330;2023-11-19T00:42:19;13.50;99.90
35523;DHT22;61478;50.820;4.330;2023-11-19T00:44:44;13.50;99.90
35523;DHT22;61478;50.820;4.330;2023-11-19T00:47:11;13.50;99.90
35523;DHT22;61478;50.820;4.330;2023-11-19T00:49:36;13.50;99.90
35523;DHT22;61478;50.820;4.330;2023-11-19T00:52:02;13.50;99.90
35523;DHT22;61478;50.820;4.330;2023-11-19T00:54:27;13.50;99.90
35523;DHT22;61478;50.820;4.330;2023-11-19T00:56:53;13.50;99.90
35523;DHT22;61478;50.820;4.330;2023-11-19T00:59:19;13.60;99.90
35523;DHT22;61478;50.820;4.330;2023-11-19T01:01:45;13.60;99.90
35523;DHT22;61478;50.820;4.330;2023-11-19T01:04:10;13.50;99.90
35523;DHT22;61478;50.820;4.330;2023-11-19T01:06:36;13.60;99.90
35523;DHT22;61478;50.820;4.330;2023-11-19T01:09:01;13.60;99.90
35523;DHT22;61478;50.820;4.330;2023-11-19T01:11:27;13.60;99.90
35523;DHT22;61478;50.820;4.330;2023-11-19T01:13:53;13.60;99.90
35523;DHT22;61478;50.820;4.330;2023-11-19T01:16:19;13.60;99.90
35523;DHT22;61478;50.820;4.330;2023-11-19T01:18:49;13.60;99.90
35523;DHT22;61478;50.820;4.330;2023-11-19T01:21:15;13.60;99.90
35523;DHT22;61478;50.820;4.330;2023-11-19T01:23:41;13.60;99.90
35523;DHT22;61478;50.820;4.330;2023-11-19T01:26:10;13.60;99.90
35523;DHT22;61478;50.820;4.330;2023-11-19T01:28:37;13.60;99.90
35523;DHT22;61478;50.820;4.330;2023-11-19T01:31:05;13.60;99.90
35523;DHT22;61478;50.820;4.330;2023-11-19T01:33:30;13.50;99.90
35523;DHT22;61478;50.820;4.330;2023-11-19T01:35:56;13.50;99.90
35523;DHT22;61478;50.820;4.330;2023-11-19T01:38:25;13.50;99.90
35523;DHT22;61478;50.820;4.330;2023-11-19T01:40:55;13.50;99.90
35523;DHT22;61478;50.820;4.330;2023-11-19T01:43:33;13.50;99.90
35523;DHT22;61478;50.820;4.330;2023-11-19T01:46:00;13.40;99.90
35523;DHT22;61478;50.820;4.330;2023-11-19T01:48:25;13.40;99.90
35523;DHT22;61478;50.820;4.330;2023-11-19T01:50:51;13.40;99.90
35523;DHT22;61478;50.820;4.330;2023-11-19T01:53:18;13.40;99.90
35523;DHT22;61478;50.820;4.330;2023-11-19T01:55:44;13.40;99.90
35523;DHT22;61478;50.820;4.330;2023-11-19T01:58:10;13.40;99.90
35523;DHT22;61478;50.820;4.330;2023-11-19T02:00:37;13.40;99.90
35523;DHT22;61478;50.820;4.330;2023-11-19T02:03:05;13.50;99.90
35523;DHT22;61478;50.820;4.330;2023-11-19T02:05:32;13.50;99.90
35523;DHT22;61478;50.820;4.330;2023-11-19T02:07:58;13.50;99.90
35523;DHT22;61478;50.820;4.330;2023-11-19T02:10:24;13.40;99.90
35523;DHT22;61478;50.820;4.330;2023-11-19T02:12:50;13.50;99.90
35523;DHT22;61478;50.820;4.330;2023-11-19T02:15:16;13.40;99.90
35523;DHT22;61478;50.820;4.330;2023-11-19T02:17:44;13.40;99.90
35523;DHT22;61478;50.820;4.330;2023-11-19T02:20:10;13.30;99.90
35523;DHT22;61478;50.820;4.330;2023-11-19T02:22:40;13.30;99.90
35523;DHT22;61478;50.820;4.330;2023-11-19T02:25:11;13.30;99.90
35523;DHT22;61478;50.820;4.330;2023-11-19T02:30:06;13.30;99.90
35523;DHT22;61478;50.820;4.330;2023-11-19T02:32:34;13.20;99.90
35523;DHT22;61478;50.820;4.330;2023-11-19T02:35:01;13.20;99.90
35523;DHT22;61478;50.820;4.330;2023-11-19T02:37:27;13.20;99.90
35523;DHT22;61478;50.820;4.330;2023-11-19T02:39:53;13.20;99.90
35523;DHT22;61478;50.820;4.330;2023-11-19T02:42:19;13.20;99.90
35523;DHT22;61478;50.820;4.330;2023-11-19T02:44:45;13.10;99.90
35523;DHT22;61478;50.820;4.330;2023-11-19T02:47:11;13.20;99.90
35523;DHT22;61478;50.820;4.330;2023-11-19T02:49:37;13.20;99.90
35523;DHT22;61478;50.820;4.330;2023-11-19T02:52:03;13.20;99.90
35523;DHT22;61478;50.820;4.330;2023-11-19T02:54:31;13.20;99.90
35523;DHT22;61478;50.820;4.330;2023-11-19T02:57:01;13.20;99.90
35523;DHT22;61478;50.820;4.330;2023-11-19T02:59:29;13.20;99.90
35523;DHT22;61478;50.820;4.330;2023-11-19T03:02:07;13.20;99.90
35523;DHT22;61478;50.820;4.330;2023-11-19T03:04:36;13.20;99.90
35523;DHT22;61478;50.820;4.330;2023-11-19T03:07:02;13.20;99.90
35523;DHT22;61478;50.820;4.330;2023-11-19T03:09:27;13.10;99.90
35523;DHT22;61478;50.820;4.330;2023-11-19T03:11:54;13.20;99.90
35523;DHT22;61478;50.820;4.330;2023-11-19T03:14:20;13.10;99.90
35523;DHT22;61478;50.820;4.330;2023-11-19T03:16:46;13.10;99.90
35523;DHT22;61478;50.820;4.330;2023-11-19T03:19:14;13.10;99.90
35523;DHT22;61478;50.820;4.330;2023-11-19T03:21:40;13.10;99.90
35523;DHT22;61478;50.820;4.330;2023-11-19T03:24:06;13.00;99.90
35523;DHT22;61478;50.820;4.330;2023-11-19T03:26:32;13.00;99.90
35523;DHT22;61478;50.820;4.330;2023-11-19T03:28:59;13.00;99.90
35523;DHT22;61478;50.820;4.330;2023-11-19T03:31:24;12.90;99.90
35523;DHT22;61478;50.820;4.330;2023-11-19T03:33:51;12.90;99.90
35523;DHT22;61478;50.820;4.330;2023-11-19T03:36:16;12.90;99.90
35523;DHT22;61478;50.820;4.330;2023-11-19T03:38:43;12.90;99.90
35523;DHT22;61478;50.820;4.330;2023-11-19T03:41:12;12.80;99.90
35523;DHT22;61478;50.820;4.330;2023-11-19T03:43:38;12.80;99.90
35523;DHT22;61478;50.820;4.330;2023-11-19T03:46:04;12.80;99.90
35523;DHT22;61478;50.820;4.330;2023-11-19T03:48:30;12.80;99.90
35523;DHT22;61478;50.820;4.330;2023-11-19T03:50:56;12.70;99.90
35523;DHT22;61478;50.820;4.330;2023-11-19T03:53:22;12.70;99.90
35523;DHT22;61478;50.820;4.330;2023-11-19T03:55:49;12.60;99.90
35523;DHT22;61478;50.820;4.330;2023-11-19T03:58:15;12.70;99.90
35523;DHT22;61478;50.820;4.330;2023-11-19T04:00:41;12.60;99.90
35523;DHT22;61478;50.820;4.330;2023-11-19T04:03:06;12.50;99.90
35523;DHT22;61478;50.820;4.330;2023-11-19T04:05:32;12.60;99.90
35523;DHT22;61478;50.820;4.330;2023-11-19T04:07:57;12.60;99.90
35523;DHT22;61478;50.820;4.330;2023-11-19T04:10:23;12.60;99.90
35523;DHT22;61478;50.820;4.330;2023-11-19T04:12:49;12.60;99.90
35523;DHT22;61478;50.820;4.330;2023-11-19T04:15:15;12.60;99.90
35523;DHT22;61478;50.820;4.330;2023-11-19T04:17:41;12.70;99.90
35523;DHT22;61478;50.820;4.330;2023-11-19T04:20:06;12.70;99.90
35523;DHT22;61478;50.820;4.330;2023-11-19T04:22:36;12.70;99.90
35523;DHT22;61478;50.820;4.330;2023-11-19T04:25:01;12.60;99.90
35523;DHT22;61478;50.820;4.330;2023-11-19T04:27:28;12.60;99.90
35523;DHT22;61478;50.820;4.330;2023-11-19T04:29:55;12.60;99.90
35523;DHT22;61478;50.820;4.330;2023-11-19T04:32:20;12.60;99.90
35523;DHT22;61478;50.820;4.330;2023-11-19T04:34:47;12.50;99.90
35523;DHT22;61478;50.820;4.330;2023-11-19T04:37:13;12.50;99.90
35523;DHT22;61478;50.820;4.330;2023-11-19T04:39:39;12.60;99.90
35523;DHT22;61478;50.820;4.330;2023-11-19T04:42:04;12.50;99.90
35523;DHT22;61478;50.820;4.330;2023-11-19T04:44:31;12.50;99.90
35523;DHT22;61478;50.820;4.330;2023-11-19T04:46:57;12.50;99.90
35523;DHT22;61478;50.820;4.330;2023-11-19T04:49:22;12.60;99.90
35523;DHT22;61478;50.820;4.330;2023-11-19T04:51:48;12.60;99.90
35523;DHT22;61478;50.820;4.330;2023-11-19T04:54:14;12.60;99.90
35523;DHT22;61478;50.820;4.330;2023-11-19T04:56:39;12.60;99.90
35523;DHT22;61478;50.820;4.330;2023-11-19T04:59:05;12.60;99.90
35523;DHT22;61478;50.820;4.330;2023-11-19T05:01:34;12.60;99.90
35523;DHT22;61478;50.820;4.330;2023-11-19T05:04:00;12.70;99.90
35523;DHT22;61478;50.820;4.330;2023-11-19T05:06:30;12.70;99.90
35523;DHT22;61478;50.820;4.330;2023-11-19T05:08:56;12.70;99.90
35523;DHT22;61478;50.820;4.330;2023-11-19T05:11:22;12.60;99.90
35523;DHT22;61478;50.820;4.330;2023-11-19T05:13:47;12.60;99.90
35523;DHT22;61478;50.820;4.330;2023-11-19T05:16:13;12.50;99.90
35523;DHT22;61478;50.820;4.330;2023-11-19T05:18:42;12.50;99.90
35523;DHT22;61478;50.820;4.330;2023-11-19T05:21:08;12.40;99.90
35523;DHT22;61478;50.820;4.330;2023-11-19T05:23:34;12.40;99.90
35523;DHT22;61478;50.820;4.330;2023-11-19T05:26:03;12.40;99.90
35523;DHT22;61478;50.820;4.330;2023-11-19T05:28:29;12.30;99.90
35523;DHT22;61478;50.820;4.330;2023-11-19T05:30:54;12.30;99.90
35523;DHT22;61478;50.820;4.330;2023-11-19T05:33:20;12.30;99.90
35523;DHT22;61478;50.820;4.330;2023-11-19T05:35:46;12.30;99.90
35523;DHT22;61478;50.820;4.330;2023-11-19T05:38:12;12.30;99.90
35523;DHT22;61478;50.820;4.330;2023-11-19T05:40:37;12.30;99.90
35523;DHT22;61478;50.820;4.330;2023-11-19T05:43:04;12.30;99.90
35523;DHT22;61478;50.820;4.330;2023-11-19T05:45:30;12.30;99.90
35523;DHT22;61478;50.820;4.330;2023-11-19T05:47:56;12.40;99.90
35523;DHT22;61478;50.820;4.330;2023-11-19T05:50:22;12.30;99.90
35523;DHT22;61478;50.820;4.330;2023-11-19T05:52:48;12.40;99.90
35523;DHT22;61478;50.820;4.330;2023-11-19T05:55:14;12.40;99.90
35523;DHT22;61478;50.820;4.330;2023-11-19T05:57:39;12.30;99.90
35523;DHT22;61478;50.820;4.330;2023-11-19T06:00:06;12.40;99.90
35523;DHT22;61478;50.820;4.330;2023-11-19T06:02:34;12.30;99.90
35523;DHT22;61478;50.820;4.330;2023-11-19T06:05:00;12.30;99.90
35523;DHT22;61478;50.820;4.330;2023-11-19T06:07:27;12.30;99.90
35523;DHT22;61478;50.820;4.330;2023-11-19T06:09:53;12.30;99.90
35523;DHT22;61478;50.820;4.330;2023-11-19T06:12:18;12.20;99.90
35523;DHT22;61478;50.820;4.330;2023-11-19T06:14:44;12.20;99.90
35523;DHT22;61478;50.820;4.330;2023-11-19T06:17:09;12.10;99.90
35523;DHT22;61478;50.820;4.330;2023-11-19T06:19:36;12.10;99.90
35523;DHT22;61478;50.820;4.330;2023-11-19T06:22:03;12.00;99.90
35523;DHT22;61478;50.820;4.330;2023-11-19T06:24:29;12.00;99.90
35523;DHT22;61478;50.820;4.330;2023-11-19T06:26:54;12.00;99.90
35523;DHT22;61478;50.820;4.330;2023-11-19T06:29:20;12.00;99.90
35523;DHT22;61478;50.820;4.330;2023-11-19T06:31:46;12.00;99.90
35523;DHT22;61478;50.820;4.330;2023-11-19T06:34:14;12.00;99.90
35523;DHT22;61478;50.820;4.330;2023-11-19T06:36:39;12.00;99.90
35523;DHT22;61478;50.820;4.330;2023-11-19T06:39:05;11.90;99.90
35523;DHT22;61478;50.820;4.330;2023-11-19T06:41:31;12.00;99.90
35523;DHT22;61478;50.820;4.330;2023-11-19T06:43:57;12.00;99.90
35523;DHT22;61478;50.820;4.330;2023-11-19T06:46:22;12.00;99.90
35523;DHT22;61478;50.820;4.330;2023-11-19T06:48:48;12.00;99.90
35523;DHT22;61478;50.820;4.330;2023-11-19T06:51:13;12.00;99.90
35523;DHT22;61478;50.820;4.330;2023-11-19T06:53:39;12.00;99.90
35523;DHT22;61478;50.820;4.330;2023-11-19T06:56:21;11.90;99.90
35523;DHT22;61478;50.820;4.330;2023-11-19T06:58:47;11.90;99.90
35523;DHT22;61478;50.820;4.330;2023-11-19T07:01:14;11.90;99.90
35523;DHT22;61478;50.820;4.330;2023-11-19T07:03:40;11.80;99.90
35523;DHT22;61478;50.820;4.330;2023-11-19T07:06:06;11.80;99.90
35523;DHT22;61478;50.820;4.330;2023-11-19T07:08:31;11.80;99.90
35523;DHT22;61478;50.820;4.330;2023-11-19T07:10:57;11.80;99.90
35523;DHT22;61478;50.820;4.330;2023-11-19T07:13:23;11.80;99.90
35523;DHT22;61478;50.820;4.330;2023-11-19T07:15:48;11.90;99.90
35523;DHT22;61478;50.820;4.330;2023-11-19T07:18:14;11.80;99.90
35523;DHT22;61478;50.820;4.330;2023-11-19T07:20:40;11.90;99.90
35523;DHT22;61478;50.820;4.330;2023-11-19T07:23:06;11.90;99.90
35523;DHT22;61478;50.820;4.330;2023-11-19T07:25:32;11.90;99.90
35523;DHT22;61478;50.820;4.330;2023-11-19T07:27:57;11.80;99.90
35523;DHT22;61478;50.820;4.330;2023-11-19T07:30:23;11.90;99.90
35523;DHT22;61478;50.820;4.330;2023-11-19T07:32:48;11.80;99.90
35523;DHT22;61478;50.820;4.330;2023-11-19T07:35:14;11.90;99.90
35523;DHT22;61478;50.820;4.330;2023-11-19T07:37:41;11.90;99.90
35523;DHT22;61478;50.820;4.330;2023-11-19T07:40:07;11.90;99.90
35523;DHT22;61478;50.820;4.330;2023-11-19T07:42:33;11.80;99.90
35523;DHT22;61478;50.820;4.330;2023-11-19T07:44:59;11.80;99.90
35523;DHT22;61478;50.820;4.330;2023-11-19T07:47:24;11.80;99.90
35523;DHT22;61478;50.820;4.330;2023-11-19T07:49:50;11.80;99.90
35523;DHT22;61478;50.820;4.330;2023-11-19T07:52:16;11.80;99.90
35523;DHT22;61478;50.820;4.330;2023-11-19T07:54:41;11.80;99.90
35523;DHT22;61478;50.820;4.330;2023-11-19T07:57:07;11.80;99.90
35523;DHT22;61478;50.820;4.330;2023-11-19T07:59:32;11.90;99.90
35523;DHT22;61478;50.820;4.330;2023-11-19T08:01:58;11.90;99.90
35523;DHT22;61478;50.820;4.330;2023-11-19T08:04:23;11.90;99.90
35523;DHT22;61478;50.820;4.330;2023-11-19T08:06:49;11.90;99.90
35523;DHT22;61478;50.820;4.330;2023-11-19T08:09:15;11.90;99.90
35523;DHT22;61478;50.820;4.330;2023-11-19T08:11:41;11.90;99.90
35523;DHT22;61478;50.820;4.330;2023-11-19T08:14:06;11.90;99.90
35523;DHT22;61478;50.820;4.330;2023-11-19T08:16:32;12.00;99.90
35523;DHT22;61478;50.820;4.330;2023-11-19T08:18:57;11.90;99.90
35523;DHT22;61478;50.820;4.330;2023-11-19T08:21:23;11.90;99.90
35523;DHT22;61478;50.820;4.330;2023-11-19T08:23:49;11.90;99.90
35523;DHT22;61478;50.820;4.330;2023-11-19T08:26:15;12.00;99.90
35523;DHT22;61478;50.820;4.330;2023-11-19T08:28:41;12.00;99.90
35523;DHT22;61478;50.820;4.330;2023-11-19T08:31:07;12.10;99.90
35523;DHT22;61478;50.820;4.330;2023-11-19T08:33:32;12.10;99.90
35523;DHT22;61478;50.820;4.330;2023-11-19T08:35:58;12.20;99.90
35523;DHT22;61478;50.820;4.330;2023-11-19T08:38:24;12.20;99.90
35523;DHT22;61478;50.820;4.330;2023-11-19T08:40:49;12.20;99.90
35523;DHT22;61478;50.820;4.330;2023-11-19T08:43:15;12.20;99.90
35523;DHT22;61478;50.820;4.330;2023-11-19T08:45:41;12.20;99.90
35523;DHT22;61478;50.820;4.330;2023-11-19T08:48:07;12.10;99.90
35523;DHT22;61478;50.820;4.330;2023-11-19T08:50:32;12.10;99.90
35523;DHT22;61478;50.820;4.330;2023-11-19T08:52:58;12.10;99.90
35523;DHT22;61478;50.820;4.330;2023-11-19T08:55:23;12.10;99.90
35523;DHT22;61478;50.820;4.330;2023-11-19T08:57:49;12.20;99.90
35523;DHT22;61478;50.820;4.330;2023-11-19T09:00:15;12.20;99.90
35523;DHT22;61478;50.820;4.330;2023-11-19T09:02:40;12.20;99.90
35523;DHT22;61478;50.820;4.330;2023-11-19T09:05:06;12.30;99.90
35523;DHT22;61478;50.820;4.330;2023-11-19T09:07:34;12.30;99.90
35523;DHT22;61478;50.820;4.330;2023-11-19T09:10:00;12.30;99.90
35523;DHT22;61478;50.820;4.330;2023-11-19T09:12:26;12.30;99.90
35523;DHT22;61478;50.820;4.330;2023-11-19T09:14:52;12.30;99.90
35523;DHT22;61478;50.820;4.330;2023-11-19T09:17:17;12.30;99.90
35523;DHT22;61478;50.820;4.330;2023-11-19T09:19:43;12.30;99.90
35523;DHT22;61478;50.820;4.330;2023-11-19T09:22:09;12.40;99.90
35523;DHT22;61478;50.820;4.330;2023-11-19T09:24:34;12.40;99.90
35523;DHT22;61478;50.820;4.330;2023-11-19T09:27:00;12.50;99.90
35523;DHT22;61478;50.820;4.330;2023-11-19T09:29:26;12.50;99.90
35523;DHT22;61478;50.820;4.330;2023-11-19T09:31:51;12.50;99.90
35523;DHT22;61478;50.820;4.330;2023-11-19T09:34:17;12.60;99.90
35523;DHT22;61478;50.820;4.330;2023-11-19T09:36:42;12.60;99.90
35523;DHT22;61478;50.820;4.330;2023-11-19T09:39:10;12.50;99.90
35523;DHT22;61478;50.820;4.330;2023-11-19T09:41:35;12.60;99.90
35523;DHT22;61478;50.820;4.330;2023-11-19T09:44:01;12.50;99.90
35523;DHT22;61478;50.820;4.330;2023-11-19T09:46:27;12.50;99.90
35523;DHT22;61478;50.820;4.330;2023-11-19T09:48:53;12.50;99.90
35523;DHT22;61478;50.820;4.330;2023-11-19T09:51:20;12.60;99.90
35523;DHT22;61478;50.820;4.330;2023-11-19T09:53:46;12.70;99.90
35523;DHT22;61478;50.820;4.330;2023-11-19T09:56:12;12.60;99.90
35523;DHT22;61478;50.820;4.330;2023-11-19T09:58:37;12.70;99.90
35523;DHT22;61478;50.820;4.330;2023-11-19T10:01:03;12.70;99.90
35523;DHT22;61478;50.820;4.330;2023-11-19T10:03:35;12.70;99.90
35523;DHT22;61478;50.820;4.330;2023-11-19T10:06:03;12.70;99.90
35523;DHT22;61478;50.820;4.330;2023-11-19T10:08:29;12.70;99.90
35523;DHT22;61478;50.820;4.330;2023-11-19T10:10:55;12.70;99.90
35523;DHT22;61478;50.820;4.330;2023-11-19T10:13:25;12.90;99.90
35523;DHT22;61478;50.820;4.330;2023-11-19T10:15:51;12.90;99.90
35523;DHT22;61478;50.820;4.330;2023-11-19T10:18:17;13.00;99.90
35523;DHT22;61478;50.820;4.330;2023-11-19T10:20:43;13.00;99.90
35523;DHT22;61478;50.820;4.330;2023-11-19T10:23:10;13.10;99.90
35523;DHT22;61478;50.820;4.330;2023-11-19T10:25:36;13.10;99.90
35523;DHT22;61478;50.820;4.330;2023-11-19T10:28:02;13.20;99.90
35523;DHT22;61478;50.820;4.330;2023-11-19T10:30:29;13.20;99.90
35523;DHT22;61478;50.820;4.330;2023-11-19T10:33:05;13.30;99.90
35523;DHT22;61478;50.820;4.330;2023-11-19T10:35:34;13.40;99.90
35523;DHT22;61478;50.820;4.330;2023-11-19T10:38:00;13.40;99.90
35523;DHT22;61478;50.820;4.330;2023-11-19T10:40:39;13.40;99.90
35523;DHT22;61478;50.820;4.330;2023-11-19T10:43:07;13.30;99.90
35523;DHT22;61478;50.820;4.330;2023-11-19T10:45:34;13.30;99.90
35523;DHT22;61478;50.820;4.330;2023-11-19T10:47:59;13.20;99.90
35523;DHT22;61478;50.820;4.330;2023-11-19T10:50:28;13.10;99.90
35523;DHT22;61478;50.820;4.330;2023-11-19T10:52:57;13.10;99.90
35523;DHT22;61478;50.820;4.330;2023-11-19T10:55:29;13.10;99.90
35523;DHT22;61478;50.820;4.330;2023-11-19T10:57:59;13.20;99.90
35523;DHT22;61478;50.820;4.330;2023-11-19T11:00:26;13.10;99.90
35523;DHT22;61478;50.820;4.330;2023-11-19T11:02:54;13.10;99.90
35523;DHT22;61478;50.820;4.330;2023-11-19T11:05:20;13.10;99.90
35523;DHT22;61478;50.820;4.330;2023-11-19T11:07:47;13.10;99.90
35523;DHT22;61478;50.820;4.330;2023-11-19T11:10:14;13.10;99.90
35523;DHT22;61478;50.820;4.330;2023-11-19T11:12:41;13.10;99.90
35523;DHT22;61478;50.820;4.330;2023-11-19T11:15:10;13.10;99.90
35523;DHT22;61478;50.820;4.330;2023-11-19T11:17:37;13.10;99.90
35523;DHT22;61478;50.820;4.330;2023-11-19T11:20:04;13.00;99.90
35523;DHT22;61478;50.820;4.330;2023-11-19T11:22:33;13.00;99.90
35523;DHT22;61478;50.820;4.330;2023-11-19T11:25:11;13.00;99.90
35523;DHT22;61478;50.820;4.330;2023-11-19T11:27:49;13.00;99.90
35523;DHT22;61478;50.820;4.330;2023-11-19T11:30:25;13.00;99.90
35523;DHT22;61478;50.820;4.330;2023-11-19T11:33:02;13.10;99.90
35523;DHT22;61478;50.820;4.330;2023-11-19T11:37:58;13.10;99.90
35523;DHT22;61478;50.820;4.330;2023-11-19T11:40:25;13.10;99.90
35523;DHT22;61478;50.820;4.330;2023-11-19T11:42:51;13.20;99.90
35523;DHT22;61478;50.820;4.330;2023-11-19T11:45:18;13.40;99.90
35523;DHT22;61478;50.820;4.330;2023-11-19T11:50:20;14.00;99.90
35523;DHT22;61478;50.820;4.330;2023-11-19T11:57:49;14.70;99.90
35523;DHT22;61478;50.820;4.330;2023-11-19T12:00:21;14.90;99.90
35523;DHT22;61478;50.820;4.330;2023-11-19T12:02:47;14.70;99.90
35523;DHT22;61478;50.820;4.330;2023-11-19T12:05:14;14.40;99.90
35523;DHT22;61478;50.820;4.330;2023-11-19T12:07:40;14.30;99.90
35523;DHT22;61478;50.820;4.330;2023-11-19T12:10:06;14.10;99.90
35523;DHT22;61478;50.820;4.330;2023-11-19T12:12:37;14.10;99.90
35523;DHT22;61478;50.820;4.330;2023-11-19T12:15:06;14.00;99.90
35523;DHT22;61478;50.820;4.330;2023-11-19T12:19:59;13.70;99.90
35523;DHT22;61478;50.820;4.330;2023-11-19T12:22:25;13.60;99.90
35523;DHT22;61478;50.820;4.330;2023-11-19T12:24:51;13.50;99.90
35523;DHT22;61478;50.820;4.330;2023-11-19T12:27:17;13.40;99.90
35523;DHT22;61478;50.820;4.330;2023-11-19T12:29:43;13.30;99.90
35523;DHT22;61478;50.820;4.330;2023-11-19T12:32:09;13.30;99.90
35523;DHT22;61478;50.820;4.330;2023-11-19T12:34:35;13.20;99.90
35523;DHT22;61478;50.820;4.330;2023-11-19T12:37:03;13.20;99.90
35523;DHT22;61478;50.820;4.330;2023-11-19T12:39:29;13.10;99.90
35523;DHT22;61478;50.820;4.330;2023-11-19T12:41:55;13.10;99.90
35523;DHT22;61478;50.820;4.330;2023-11-19T12:44:21;13.10;99.90
35523;DHT22;61478;50.820;4.330;2023-11-19T12:46:58;13.20;99.90
35523;DHT22;61478;50.820;4.330;2023-11-19T12:49:24;13.20;99.90
35523;DHT22;61478;50.820;4.330;2023-11-19T12:51:50;13.30;99.90
35523;DHT22;61478;50.820;4.330;2023-11-19T12:54:16;13.30;99.90
35523;DHT22;61478;50.820;4.330;2023-11-19T12:56:51;13.30;99.90
35523;DHT22;61478;50.820;4.330;2023-11-19T12:59:17;13.30;99.90
35523;DHT22;61478;50.820;4.330;2023-11-19T13:01:53;13.30;99.90
35523;DHT22;61478;50.820;4.330;2023-11-19T13:04:19;13.30;99.90
35523;DHT22;61478;50.820;4.330;2023-11-19T13:06:47;13.40;99.90
35523;DHT22;61478;50.820;4.330;2023-11-19T13:09:23;13.40;99.90
35523;DHT22;61478;50.820;4.330;2023-11-19T13:11:50;13.40;99.90
35523;DHT22;61478;50.820;4.330;2023-11-19T13:14:16;13.40;99.90
35523;DHT22;61478;50.820;4.330;2023-11-19T13:16:42;13.40;99.90
35523;DHT22;61478;50.820;4.330;2023-11-19T13:19:08;13.40;99.90
35523;DHT22;61478;50.820;4.330;2023-11-19T13:21:36;13.40;99.90
35523;DHT22;61478;50.820;4.330;2023-11-19T13:24:03;13.40;99.90
35523;DHT22;61478;50.820;4.330;2023-11-19T13:26:29;13.40;99.90
35523;DHT22;61478;50.820;4.330;2023-11-19T13:28:54;13.20;99.90
35523;DHT22;61478;50.820;4.330;2023-11-19T13:31:20;13.10;99.90
35523;DHT22;61478;50.820;4.330;2023-11-19T13:33:45;13.10;99.90
35523;DHT22;61478;50.820;4.330;2023-11-19T13:36:11;13.10;99.90
35523;DHT22;61478;50.820;4.330;2023-11-19T13:38:37;13.10;99.90
35523;DHT22;61478;50.820;4.330;2023-11-19T13:41:03;13.00;99.90
35523;DHT22;61478;50.820;4.330;2023-11-19T13:43:30;13.00;99.90
35523;DHT22;61478;50.820;4.330;2023-11-19T13:45:55;13.00;99.90
35523;DHT22;61478;50.820;4.330;2023-11-19T13:48:22;13.10;99.90
35523;DHT22;61478;50.820;4.330;2023-11-19T13:50:47;13.10;99.90
35523;DHT22;61478;50.820;4.330;2023-11-19T13:53:13;13.10;99.90
35523;DHT22;61478;50.820;4.330;2023-11-19T13:55:38;13.10;99.90
35523;DHT22;61478;50.820;4.330;2023-11-19T13:58:04;13.10;99.90
35523;DHT22;61478;50.820;4.330;2023-11-19T14:00:30;13.20;99.90
35523;DHT22;61478;50.820;4.330;2023-11-19T14:02:55;13.10;99.90
35523;DHT22;61478;50.820;4.330;2023-11-19T14:05:21;13.20;99.90
35523;DHT22;61478;50.820;4.330;2023-11-19T14:07:46;13.10;99.90
35523;DHT22;61478;50.820;4.330;2023-11-19T14:10:17;13.20;99.90
35523;DHT22;61478;50.820;4.330;2023-11-19T14:12:42;13.20;99.90
35523;DHT22;61478;50.820;4.330;2023-11-19T14:15:09;13.20;99.90
35523;DHT22;61478;50.820;4.330;2023-11-19T14:17:35;13.10;99.90
35523;DHT22;61478;50.820;4.330;2023-11-19T14:20:01;13.20;99.90
35523;DHT22;61478;50.820;4.330;2023-11-19T14:22:28;13.20;99.90
35523;DHT22;61478;50.820;4.330;2023-11-19T14:24:55;13.20;99.90
35523;DHT22;61478;50.820;4.330;2023-11-19T14:27:21;13.20;99.90
35523;DHT22;61478;50.820;4.330;2023-11-19T14:29:47;13.10;99.90
35523;DHT22;61478;50.820;4.330;2023-11-19T14:32:13;13.00;99.90
35523;DHT22;61478;50.820;4.330;2023-11-19T14:34:39;12.90;99.90
35523;DHT22;61478;50.820;4.330;2023-11-19T14:37:04;12.90;99.90
35523;DHT22;61478;50.820;4.330;2023-11-19T14:39:30;12.90;99.90
35523;DHT22;61478;50.820;4.330;2023-11-19T14:41:59;12.90;99.90
35523;DHT22;61478;50.820;4.330;2023-11-19T14:44:29;12.90;99.90
35523;DHT22;61478;50.820;4.330;2023-11-19T14:46:55;12.90;99.90
35523;DHT22;61478;50.820;4.330;2023-11-19T14:49:21;12.90;99.90
35523;DHT22;61478;50.820;4.330;2023-11-19T14:51:46;12.90;99.90
35523;DHT22;61478;50.820;4.330;2023-11-19T14:54:12;13.00;99.90
35523;DHT22;61478;50.820;4.330;2023-11-19T14:56:40;12.90;99.90
35523;DHT22;61478;50.820;4.330;2023-11-19T14:59:05;12.90;99.90
35523;DHT22;61478;50.820;4.330;2023-11-19T15:01:31;12.80;99.90
35523;DHT22;61478;50.820;4.330;2023-11-19T15:03:56;12.80;99.90
35523;DHT22;61478;50.820;4.330;2023-11-19T15:06:23;12.80;99.90
35523;DHT22;61478;50.820;4.330;2023-11-19T15:08:49;12.80;99.90
35523;DHT22;61478;50.820;4.330;2023-11-19T15:11:14;12.80;99.90
35523;DHT22;61478;50.820;4.330;2023-11-19T15:13:40;12.90;99.90
35523;DHT22;61478;50.820;4.330;2023-11-19T15:16:07;12.80;99.90
35523;DHT22;61478;50.820;4.330;2023-11-19T15:18:36;12.80;99.90
35523;DHT22;61478;50.820;4.330;2023-11-19T15:21:01;12.90;99.90
35523;DHT22;61478;50.820;4.330;2023-11-19T15:23:27;12.90;99.90
35523;DHT22;61478;50.820;4.330;2023-11-19T15:25:54;12.90;99.90
35523;DHT22;61478;50.820;4.330;2023-11-19T15:28:20;12.90;99.90
35523;DHT22;61478;50.820;4.330;2023-11-19T15:30:47;12.90;99.90
35523;DHT22;61478;50.820;4.330;2023-11-19T15:33:12;13.00;99.90
35523;DHT22;61478;50.820;4.330;2023-11-19T15:35:38;12.90;99.90
35523;DHT22;61478;50.820;4.330;2023-11-19T15:38:04;12.90;99.90
35523;DHT22;61478;50.820;4.330;2023-11-19T15:40:30;12.90;99.90